createdAt,value
2023-01-05T00:01:06.665Z,13.83
2023-01-05T00:03:35.072Z,14.47
2023-01-05T00:06:05.783Z,14.57
2023-01-05T00:08:37.678Z,14.50
2023-01-05T00:11:24.253Z,15.87
2023-01-05T00:14:10.234Z,11.43
2023-01-05T00:16:55.813Z,11.70
2023-01-05T00:19:41.392Z,11.93
2023-01-05T00:22:35.006Z,12.10
2023-01-05T00:25:12.115Z,14.03
2023-01-05T00:27:43.597Z,14.10
2023-01-05T00:30:13.063Z,12.87
2023-01-05T00:32:42.668Z,14.07
2023-01-05T00:35:11.658Z,12.10
2023-01-05T00:37:39.774Z,12.07
2023-01-05T00:40:11.485Z,12.13
2023-01-05T00:42:39.837Z,13.37
2023-01-05T00:45:09.885Z,14.30
2023-01-05T00:47:37.945Z,13.23
2023-01-05T00:50:07.213Z,13.60
2023-01-05T00:52:36.672Z,11.67
2023-01-05T00:55:05.080Z,14.57
2023-01-05T00:57:34.428Z,13.17
2023-01-05T01:00:02.956Z,13.10
2023-01-05T01:02:32.298Z,12.27
2023-01-05T01:05:00.274Z,9.70
2023-01-05T01:07:28.214Z,10.80
2023-01-05T01:09:56.499Z,13.33
2023-01-05T01:12:24.492Z,11.43
2023-01-05T01:14:54.014Z,10.33
2023-01-05T01:17:21.913Z,12.07
2023-01-05T01:19:49.833Z,9.77
2023-01-05T01:22:17.688Z,10.17
2023-01-05T01:24:45.537Z,11.20
2023-01-05T01:27:13.578Z,12.77
2023-01-05T01:29:41.816Z,10.23
2023-01-05T01:32:11.055Z,10.17
2023-01-05T01:34:39.820Z,12.50
2023-01-05T01:37:07.669Z,10.67
2023-01-05T01:39:41.696Z,11.97
2023-01-05T01:42:15.476Z,10.40
2023-01-05T01:44:56.951Z,9.27
2023-01-05T01:47:38.748Z,11.00
2023-01-05T01:50:12.040Z,9.90
2023-01-05T01:52:41.404Z,10.30
2023-01-05T01:55:11.513Z,10.17
2023-01-05T01:57:41.150Z,13.17
2023-01-05T02:00:13.468Z,11.30
2023-01-05T02:02:52.109Z,9.83
2023-01-05T02:05:28.947Z,11.37
2023-01-05T02:07:56.970Z,9.33
2023-01-05T02:10:37.663Z,11.30
2023-01-05T02:13:26.246Z,10.00
2023-01-05T02:16:07.165Z,12.27
2023-01-05T02:18:54.051Z,11.70
2023-01-05T02:21:37.120Z,9.70
2023-01-05T02:24:37.885Z,9.30
2023-01-05T02:27:39.146Z,9.80
2023-01-05T02:30:43.189Z,9.77
2023-01-05T02:33:22.035Z,9.30
2023-01-05T02:35:56.974Z,9.10
2023-01-05T02:38:32.255Z,9.70
2023-01-05T02:41:23.097Z,10.73
2023-01-05T02:43:51.478Z,8.47
2023-01-05T02:46:19.536Z,11.90
2023-01-05T02:48:52.867Z,11.50
2023-01-05T02:51:24.847Z,8.33
2023-01-05T02:53:59.751Z,10.30
2023-01-05T02:56:33.526Z,8.93
2023-01-05T02:59:06.087Z,8.40
2023-01-05T03:01:40.764Z,9.03
2023-01-05T03:04:13.470Z,7.97
2023-01-05T03:06:49.012Z,7.93
2023-01-05T03:09:20.447Z,7.97
2023-01-05T03:12:15.109Z,8.20
2023-01-05T03:14:48.656Z,7.70
2023-01-05T03:17:26.765Z,8.20
2023-01-05T03:19:58.400Z,8.10
2023-01-05T03:22:47.639Z,8.17
2023-01-05T03:25:36.679Z,8.77
2023-01-05T03:28:25.141Z,7.87
2023-01-05T03:31:17.452Z,8.30
2023-01-05T03:34:10.298Z,7.60
2023-01-05T03:36:51.326Z,8.03
2023-01-05T03:39:21.477Z,8.43
2023-01-05T03:41:49.935Z,8.13
2023-01-05T03:44:19.620Z,7.40
2023-01-05T03:46:47.889Z,7.07
2023-01-05T03:49:17.637Z,7.20
2023-01-05T03:51:47.164Z,6.80
2023-01-05T03:54:15.013Z,6.93
2023-01-05T03:56:45.833Z,7.33
2023-01-05T03:59:14.981Z,6.67
2023-01-05T04:01:44.705Z,6.53
2023-01-05T04:04:15.377Z,6.37
2023-01-05T04:06:43.370Z,6.40
2023-01-05T04:09:14.233Z,7.17
2023-01-05T04:11:44.618Z,6.10
2023-01-05T04:14:12.531Z,6.93
2023-01-05T04:16:40.675Z,6.93
2023-01-05T04:19:18.132Z,6.33
2023-01-05T04:21:46.436Z,5.67
2023-01-05T04:24:16.965Z,4.53
2023-01-05T04:26:46.424Z,5.40
2023-01-05T04:29:14.706Z,5.57
2023-01-05T04:31:45.891Z,5.63
2023-01-05T04:34:14.492Z,6.20
2023-01-05T04:36:43.206Z,5.67
2023-01-05T04:39:17.813Z,6.53
2023-01-05T04:41:50.485Z,7.27
2023-01-05T04:44:20.608Z,5.53
2023-01-05T04:46:51.044Z,6.40
2023-01-05T04:49:20.432Z,5.77
2023-01-05T04:51:51.007Z,5.20
2023-01-05T04:54:23.276Z,5.00
2023-01-05T04:56:51.278Z,5.03
2023-01-05T04:59:20.326Z,5.50
2023-01-05T05:01:49.912Z,3.63
2023-01-05T05:04:17.962Z,4.00
2023-01-05T05:06:49.233Z,3.07
2023-01-05T05:09:17.647Z,3.10
2023-01-05T05:11:48.211Z,3.20
2023-01-05T05:14:16.354Z,2.87
2023-01-05T05:16:45.042Z,2.60
2023-01-05T05:19:13.190Z,2.77
2023-01-05T05:21:41.136Z,2.60
2023-01-05T05:24:09.549Z,2.30
2023-01-05T05:26:41.313Z,2.73
2023-01-05T05:29:10.582Z,2.43
2023-01-05T05:31:38.493Z,2.53
2023-01-05T05:34:06.539Z,2.30
2023-01-05T05:36:35.855Z,2.33
2023-01-05T05:39:03.741Z,2.27
2023-01-05T05:41:31.743Z,2.33
2023-01-05T05:44:01.005Z,2.60
2023-01-05T05:46:30.718Z,2.50
2023-01-05T05:49:00.211Z,2.43
2023-01-05T05:51:28.891Z,2.40
2023-01-05T05:53:56.733Z,2.93
2023-01-05T05:56:24.629Z,1.90
2023-01-05T05:58:57.316Z,1.90
2023-01-05T06:01:30.358Z,2.00
2023-01-05T06:03:58.394Z,2.20
2023-01-05T06:06:26.292Z,2.17
2023-01-05T06:08:54.092Z,2.40
2023-01-05T06:11:22.002Z,2.40
2023-01-05T06:13:49.923Z,2.20
2023-01-05T06:16:17.905Z,2.00
2023-01-05T06:18:47.185Z,1.90
2023-01-05T06:21:15.068Z,1.90
2023-01-05T06:23:43.014Z,2.40
2023-01-05T06:26:10.869Z,1.93
2023-01-05T06:28:38.691Z,2.20
2023-01-05T06:31:07.148Z,2.00
2023-01-05T06:33:35.044Z,2.57
2023-01-05T06:36:04.592Z,1.90
2023-01-05T06:38:32.465Z,2.20
2023-01-05T06:41:00.348Z,2.20
2023-01-05T06:43:28.255Z,1.90
2023-01-05T06:45:56.172Z,2.20
2023-01-05T06:48:24.058Z,2.57
2023-01-05T06:50:52.016Z,2.77
2023-01-05T06:53:21.217Z,2.90
2023-01-05T06:55:49.088Z,2.80
2023-01-05T06:58:16.958Z,3.47
2023-01-05T07:00:44.820Z,10.50
2023-01-05T07:03:14.324Z,4.57
2023-01-05T07:05:42.548Z,4.00
2023-01-05T07:08:10.560Z,5.17
2023-01-05T07:10:39.738Z,5.13
2023-01-05T07:13:07.621Z,5.30
2023-01-05T07:15:35.475Z,13.17
2023-01-05T07:18:03.311Z,6.70
2023-01-05T07:20:31.188Z,8.37
2023-01-05T07:22:59.027Z,6.53
2023-01-05T07:25:31.563Z,6.13
2023-01-05T07:28:00.951Z,6.20
2023-01-05T07:30:28.734Z,5.90
2023-01-05T07:32:59.273Z,6.53
2023-01-05T07:35:27.693Z,7.73
2023-01-05T07:37:57.057Z,6.47
2023-01-05T07:40:25.306Z,9.37
2023-01-05T07:42:53.639Z,8.50
2023-01-05T07:45:22.883Z,7.30
2023-01-05T07:47:50.742Z,7.13
2023-01-05T07:50:18.597Z,5.93
2023-01-05T07:52:46.744Z,6.23
2023-01-05T07:55:14.910Z,7.10
2023-01-05T07:57:42.838Z,7.43
2023-01-05T08:00:14.270Z,6.77
2023-01-05T08:02:43.894Z,7.10
2023-01-05T08:05:11.913Z,6.80
2023-01-05T08:07:40.056Z,6.80
2023-01-05T08:10:26.178Z,6.90
2023-01-05T08:13:11.412Z,6.97
2023-01-05T08:15:39.605Z,6.90
2023-01-05T08:18:08.756Z,6.47
2023-01-05T08:20:36.595Z,7.10
2023-01-05T08:23:04.686Z,6.87
2023-01-05T08:25:32.770Z,7.50
2023-01-05T08:28:11.026Z,8.97
2023-01-05T08:30:39.630Z,4.50
2023-01-05T08:33:27.615Z,5.43
2023-01-05T08:35:56.116Z,5.13
2023-01-05T08:38:24.177Z,6.20
2023-01-05T08:41:06.007Z,5.57
2023-01-05T08:43:34.896Z,7.57
2023-01-05T08:46:03.208Z,5.60
2023-01-05T08:48:32.659Z,5.53
2023-01-05T08:51:03.608Z,5.50
2023-01-05T08:53:31.469Z,6.17
2023-01-05T08:55:59.327Z,4.87
2023-01-05T08:58:27.248Z,5.57
2023-01-05T09:00:55.155Z,3.90
2023-01-05T09:03:23.101Z,3.63
2023-01-05T09:05:59.330Z,3.67
2023-01-05T09:08:27.285Z,3.63
2023-01-05T09:10:55.204Z,4.80
2023-01-05T09:13:23.085Z,3.73
2023-01-05T09:15:50.948Z,4.03
2023-01-05T09:18:18.943Z,2.87
2023-01-05T09:20:48.488Z,2.90
2023-01-05T09:23:17.631Z,3.60
2023-01-05T09:25:45.885Z,2.43
2023-01-05T09:28:13.751Z,2.00
2023-01-05T09:30:47.000Z,2.30
2023-01-05T09:33:18.284Z,2.30
2023-01-05T09:35:46.098Z,2.43
2023-01-05T09:38:14.011Z,1.80
2023-01-05T09:40:44.402Z,2.30
2023-01-05T09:43:21.923Z,2.73
2023-01-05T09:45:51.281Z,1.77
2023-01-05T09:48:19.839Z,2.70
2023-01-05T09:50:50.183Z,1.90
2023-01-05T09:53:26.697Z,3.53
2023-01-05T09:55:56.022Z,1.90
2023-01-05T09:58:30.142Z,2.33
2023-01-05T10:01:08.486Z,1.80
2023-01-05T10:06:34.537Z,2.00
2023-01-05T10:09:05.066Z,2.00
2023-01-05T10:11:58.343Z,1.90
2023-01-05T10:14:32.392Z,2.60
2023-01-05T10:17:30.485Z,3.53
2023-01-05T10:19:54.890Z,3.63
2023-01-05T10:22:39.086Z,2.43
2023-01-05T10:25:25.180Z,2.50
2023-01-05T10:28:02.326Z,3.97
2023-01-05T10:30:48.625Z,4.77
2023-01-05T10:33:29.548Z,5.50
2023-01-05T10:36:41.406Z,2.20
2023-01-05T10:39:16.494Z,2.47
2023-01-05T10:41:51.481Z,2.20
2023-01-05T10:44:43.574Z,2.80
2023-01-05T10:47:13.089Z,3.73
2023-01-05T10:49:43.619Z,2.60
2023-01-05T10:52:14.984Z,2.47
2023-01-05T10:54:45.660Z,4.17
2023-01-05T10:57:36.344Z,2.07
2023-01-05T11:00:14.904Z,2.80
2023-01-05T11:02:49.655Z,3.07
2023-01-05T11:05:28.419Z,2.87
2023-01-05T11:07:59.473Z,3.03
2023-01-05T11:10:31.988Z,8.27
2023-01-05T11:13:04.506Z,3.40
2023-01-05T11:15:41.606Z,4.43
2023-01-05T11:18:25.773Z,3.57
2023-01-05T11:21:07.664Z,2.70
2023-01-05T11:23:38.018Z,2.47
2023-01-05T11:26:28.687Z,3.30
2023-01-05T11:29:02.650Z,3.03
2023-01-05T11:31:37.434Z,3.63
2023-01-05T11:34:10.012Z,4.00
2023-01-05T11:36:39.311Z,2.90
2023-01-05T11:39:07.953Z,2.33
2023-01-05T11:41:37.437Z,3.47
2023-01-05T11:44:06.802Z,2.20
2023-01-05T11:46:44.436Z,2.30
2023-01-05T11:49:12.555Z,2.60
2023-01-05T11:51:41.920Z,2.50
2023-01-05T11:54:33.862Z,5.60
2023-01-05T11:57:14.935Z,2.70
2023-01-05T11:59:42.906Z,2.80
2023-01-05T12:02:45.613Z,3.13
2023-01-05T12:05:25.708Z,3.73
2023-01-05T12:07:57.311Z,3.23
2023-01-05T12:10:37.632Z,7.17
2023-01-05T12:13:13.711Z,4.17
2023-01-05T12:15:57.229Z,3.23
2023-01-05T12:18:50.679Z,2.47
2023-01-05T12:21:24.831Z,2.93
2023-01-05T12:24:03.677Z,5.33
2023-01-05T12:26:39.466Z,2.47
2023-01-05T12:36:10.981Z,2.43
2023-01-05T12:38:48.531Z,3.30
2023-01-05T12:41:49.393Z,2.60
2023-01-05T12:44:43.721Z,2.60
2023-01-05T12:47:25.310Z,2.43
2023-01-05T12:49:59.189Z,2.80
2023-01-05T12:52:33.839Z,2.93
2023-01-05T12:55:07.550Z,2.37
2023-01-05T12:57:40.457Z,2.80
2023-01-05T13:00:12.822Z,3.00
2023-01-05T13:02:44.697Z,5.03
2023-01-05T13:05:20.825Z,3.00
2023-01-05T13:07:54.677Z,3.30
2023-01-05T13:10:26.990Z,3.60
2023-01-05T13:12:59.504Z,4.33
2023-01-05T13:15:38.797Z,6.07
2023-01-05T13:18:11.261Z,6.63
2023-01-05T13:20:44.111Z,5.47
2023-01-05T13:23:18.762Z,3.43
2023-01-05T13:25:53.964Z,6.07
2023-01-05T13:28:24.587Z,3.03
2023-01-05T13:31:24.161Z,5.80
2023-01-05T13:34:28.569Z,3.80
2023-01-05T13:37:25.088Z,5.53
2023-01-05T13:40:11.546Z,4.43
2023-01-05T13:42:53.926Z,4.60
2023-01-05T13:45:34.379Z,2.60
2023-01-05T13:48:38.581Z,3.37
2023-01-05T13:51:47.844Z,7.17
2023-01-05T13:54:20.359Z,3.43
2023-01-05T13:56:51.068Z,4.87
2023-01-05T13:59:34.683Z,3.23
2023-01-05T14:02:04.170Z,4.50
2023-01-05T14:04:35.079Z,4.53
2023-01-05T14:07:06.595Z,3.83
2023-01-05T14:09:39.900Z,5.60
2023-01-05T14:12:44.060Z,3.30
2023-01-05T14:15:45.019Z,3.03
2023-01-05T14:18:13.739Z,4.50
2023-01-05T14:20:48.933Z,3.33
2023-01-05T14:23:55.630Z,3.07
2023-01-05T14:26:55.779Z,5.47
2023-01-05T14:30:11.404Z,2.90
2023-01-05T14:32:42.101Z,4.23
2023-01-05T14:35:23.211Z,3.37
2023-01-05T14:37:55.162Z,3.33
2023-01-05T14:40:36.564Z,3.10
2023-01-05T14:43:07.853Z,2.80
2023-01-05T14:45:38.148Z,3.67
2023-01-05T14:48:26.586Z,2.73
2023-01-05T14:51:09.822Z,2.87
2023-01-05T14:53:43.151Z,11.90
2023-01-05T14:56:19.015Z,7.40
2023-01-05T14:59:14.343Z,4.63
2023-01-05T15:01:48.896Z,2.87
2023-01-05T15:04:22.034Z,19.33
2023-01-05T15:07:06.528Z,13.67
2023-01-05T15:10:08.026Z,4.07
2023-01-05T15:12:48.289Z,3.27
2023-01-05T15:15:45.969Z,4.77
2023-01-05T15:21:29.481Z,4.27
2023-01-05T15:24:31.324Z,3.93
2023-01-05T15:27:13.973Z,4.97
2023-01-05T15:30:00.927Z,4.40
2023-01-05T15:32:32.075Z,5.80
2023-01-05T15:35:10.491Z,4.87
2023-01-05T15:37:41.604Z,4.00
2023-01-05T15:40:28.779Z,8.47
2023-01-05T15:43:00.374Z,11.13
2023-01-05T15:45:30.494Z,10.40
2023-01-05T15:48:08.420Z,5.07
2023-01-05T15:50:45.728Z,3.30
2023-01-05T15:53:27.026Z,4.50
2023-01-05T15:55:55.271Z,4.57
2023-01-05T15:58:25.721Z,3.73
2023-01-05T16:01:09.036Z,2.77
2023-01-05T16:03:38.516Z,6.20
2023-01-05T16:06:09.768Z,3.17
2023-01-05T16:08:43.391Z,4.50
2023-01-05T16:11:14.044Z,3.33
2023-01-05T16:13:46.025Z,2.70
2023-01-05T16:16:49.888Z,3.53
2023-01-05T16:19:12.517Z,2.83
2023-01-05T16:21:44.017Z,3.47
2023-01-05T16:24:26.130Z,3.00
2023-01-05T16:26:54.056Z,4.70
2023-01-05T16:29:39.234Z,2.90
2023-01-05T16:32:28.126Z,8.13
2023-01-05T16:35:37.668Z,4.10
2023-01-05T16:38:14.026Z,4.67
2023-01-05T16:41:07.467Z,3.47
2023-01-05T16:43:38.174Z,4.20
2023-01-05T16:46:28.999Z,5.67
2023-01-05T16:49:00.857Z,4.73
2023-01-05T16:51:42.427Z,6.20
2023-01-05T16:54:21.978Z,3.43
2023-01-05T16:56:57.773Z,4.40
2023-01-05T16:59:42.489Z,5.30
2023-01-05T17:02:46.106Z,4.27
2023-01-05T17:05:20.689Z,3.00
2023-01-05T17:07:50.892Z,3.40
2023-01-05T17:10:22.508Z,2.53
2023-01-05T17:12:57.146Z,13.60
2023-01-05T17:15:29.466Z,14.20
2023-01-05T17:17:57.582Z,8.07
2023-01-05T17:20:27.883Z,6.37
2023-01-05T17:22:56.681Z,3.63
2023-01-05T17:25:30.134Z,3.97
2023-01-05T17:27:59.422Z,3.50
2023-01-05T17:30:27.387Z,4.73
2023-01-05T17:32:55.252Z,5.23
2023-01-05T17:35:23.063Z,3.30
2023-01-05T17:37:51.169Z,3.87
2023-01-05T17:40:20.821Z,4.77
2023-01-05T17:42:49.106Z,6.00
2023-01-05T17:45:20.795Z,2.90
2023-01-05T17:47:50.179Z,2.57
2023-01-05T17:50:21.407Z,4.47
2023-01-05T17:52:49.454Z,3.63
2023-01-05T17:55:17.543Z,2.67
2023-01-05T17:57:45.442Z,2.73
2023-01-05T18:00:16.917Z,2.80
2023-01-05T18:02:47.592Z,3.97
2023-01-05T18:05:15.657Z,2.50
2023-01-05T18:07:44.415Z,2.23
2023-01-05T18:10:16.016Z,2.40
2023-01-05T18:12:44.135Z,2.53
2023-01-05T18:15:13.514Z,3.50
2023-01-05T18:17:42.384Z,2.80
2023-01-05T18:20:14.673Z,2.80
2023-01-05T18:22:43.321Z,3.30
2023-01-05T18:25:12.966Z,2.50
2023-01-05T18:27:41.599Z,2.77
2023-01-05T18:30:11.135Z,2.97
2023-01-05T18:32:39.551Z,4.30
2023-01-05T18:35:10.209Z,4.63
2023-01-05T18:37:41.034Z,3.10
2023-01-05T18:40:10.844Z,3.03
2023-01-05T18:42:39.129Z,4.70
2023-01-05T18:45:19.111Z,5.83
2023-01-05T18:47:57.450Z,5.00
2023-01-05T18:50:25.990Z,3.60
2023-01-05T18:52:55.382Z,6.63
2023-01-05T18:55:23.985Z,4.13
2023-01-05T18:57:51.829Z,3.90
2023-01-05T19:00:20.119Z,3.43
2023-01-05T19:02:47.980Z,2.77
2023-01-05T19:05:15.909Z,3.70
2023-01-05T19:07:43.719Z,5.37
2023-01-05T19:10:13.609Z,5.63
2023-01-05T19:12:41.554Z,3.07
2023-01-05T19:15:10.546Z,6.03
2023-01-05T19:17:38.401Z,2.90
2023-01-05T19:20:07.445Z,3.73
2023-01-05T19:22:35.486Z,3.80
2023-01-05T19:25:05.463Z,2.97
2023-01-05T19:27:34.895Z,2.93
2023-01-05T19:30:02.690Z,2.93
2023-01-05T19:32:31.833Z,3.83
2023-01-05T19:34:59.901Z,5.20
2023-01-05T19:37:27.797Z,3.73
2023-01-05T19:39:55.698Z,4.03
2023-01-05T19:42:23.532Z,2.97
2023-01-05T19:44:52.777Z,5.23
2023-01-05T19:47:20.639Z,3.73
2023-01-05T19:49:48.572Z,2.53
2023-01-05T19:52:16.492Z,3.67
2023-01-05T19:54:44.326Z,2.77
2023-01-05T19:57:12.270Z,4.27
2023-01-05T19:59:40.121Z,3.20
2023-01-05T20:02:09.292Z,3.37
2023-01-05T20:04:37.253Z,3.80
2023-01-05T20:07:10.017Z,3.00
2023-01-05T20:09:38.521Z,4.37
2023-01-05T20:12:14.605Z,3.00
2023-01-05T20:14:43.700Z,3.93
2023-01-05T20:17:13.978Z,3.33
2023-01-05T20:19:42.334Z,6.77
2023-01-05T20:22:14.972Z,4.33
2023-01-05T20:24:43.776Z,3.00
2023-01-05T20:27:13.884Z,3.00
2023-01-05T20:29:42.029Z,3.40
2023-01-05T20:32:14.940Z,2.57
2023-01-05T20:34:45.117Z,4.57
2023-01-05T20:37:13.716Z,4.33
2023-01-05T20:39:42.393Z,2.90
2023-01-05T20:42:11.280Z,3.20
2023-01-05T20:44:42.659Z,2.93
2023-01-05T20:47:11.836Z,3.30
2023-01-05T20:49:42.081Z,3.00
2023-01-05T20:52:11.054Z,4.27
2023-01-05T20:54:39.607Z,2.90
2023-01-05T20:57:08.051Z,3.10
2023-01-05T20:59:40.641Z,2.90
2023-01-05T21:02:22.497Z,4.27
2023-01-05T21:05:02.424Z,3.30
2023-01-05T21:07:30.560Z,3.53
2023-01-05T21:10:01.963Z,3.70
2023-01-05T21:12:29.942Z,3.63
2023-01-05T21:15:00.086Z,3.90
2023-01-05T21:17:30.454Z,4.60
2023-01-05T21:19:58.653Z,6.23
2023-01-05T21:22:28.072Z,3.30
2023-01-05T21:24:56.250Z,3.80
2023-01-05T21:27:24.188Z,4.80
2023-01-05T21:29:52.027Z,4.00
2023-01-05T21:32:20.009Z,6.60
2023-01-05T21:34:47.848Z,3.67
2023-01-05T21:37:16.232Z,3.53
2023-01-05T21:39:45.524Z,4.83
2023-01-05T21:42:30.953Z,3.20
2023-01-05T21:44:58.887Z,3.83
2023-01-05T21:47:26.806Z,6.93
2023-01-05T21:49:54.727Z,5.70
2023-01-05T21:52:40.245Z,4.87
2023-01-05T21:55:36.656Z,4.90
2023-01-05T21:58:05.983Z,4.10
2023-01-05T22:00:34.572Z,4.50
2023-01-05T22:03:02.537Z,4.07
2023-01-05T22:05:30.447Z,5.17
2023-01-05T22:07:58.294Z,4.10
2023-01-05T22:10:27.556Z,3.30
2023-01-05T22:12:55.854Z,4.50
2023-01-05T22:15:23.807Z,3.57
2023-01-05T22:17:51.619Z,3.97
2023-01-05T22:20:19.442Z,4.53
2023-01-05T22:22:47.466Z,3.33
2023-01-05T22:25:15.360Z,6.00
2023-01-05T22:27:44.594Z,3.20
2023-01-05T22:30:13.198Z,2.73
2023-01-05T22:32:41.102Z,4.17
2023-01-05T22:35:09.583Z,2.50
2023-01-05T22:37:37.405Z,2.53
2023-01-05T22:40:06.034Z,2.50
2023-01-05T22:42:33.972Z,2.33
2023-01-05T22:45:03.151Z,2.40
2023-01-05T22:47:31.094Z,2.40
2023-01-05T22:49:58.969Z,2.43
2023-01-05T22:52:26.854Z,2.53
2023-01-05T22:54:54.734Z,2.20
2023-01-05T22:57:22.638Z,2.40
2023-01-05T22:59:50.460Z,2.43
2023-01-05T23:02:19.629Z,2.40
2023-01-05T23:04:47.478Z,2.37
2023-01-05T23:07:17.382Z,3.03
2023-01-05T23:09:45.281Z,2.50
2023-01-05T23:12:13.383Z,1.97
2023-01-05T23:14:41.279Z,1.90
2023-01-05T23:17:12.259Z,1.97
2023-01-05T23:19:41.465Z,2.70
2023-01-05T23:22:11.472Z,1.93
2023-01-05T23:24:39.875Z,2.07
2023-01-05T23:27:07.817Z,3.70
2023-01-05T23:29:35.873Z,2.67
2023-01-05T23:32:04.291Z,2.30
2023-01-05T23:34:32.334Z,1.83
2023-01-05T23:37:01.524Z,1.70
2023-01-05T23:39:29.308Z,1.80
2023-01-05T23:41:57.185Z,1.97
2023-01-05T23:44:25.094Z,2.13
2023-01-05T23:46:53.144Z,3.47
2023-01-05T23:49:20.961Z,1.77
2023-01-05T23:51:48.769Z,1.73
2023-01-05T23:54:18.011Z,1.53
2023-01-05T23:56:45.927Z,1.70
2023-01-05T23:59:13.829Z,2.00
